Time;durP1;ratioP1;P1;durP2;ratioP2;P2;SDS_P1;SDS_P2;PMS_P1;PMS_P2;Temp;Humidity;BMP_temperature;BMP_pressure;BME280_temperature;BME280_humidity;BME280_pressure;Samples;Min_cycle;Max_cycle;Signal;HPM_P1;HPM_P2
2024/04/01 05:02:12;;;;;;;;;;;;;;;11.07;100.00;99606.17;1852646;76;20100;-72
2024/04/01 05:04:42;;;;;;;;;;;;;;;11.08;100.00;99610.45;1827638;77;20093;-68
2024/04/01 05:07:09;;;;;;;;;;;;;;;11.18;100.00;99619.34;1832262;77;20497;-72
2024/04/01 05:09:35;;;;;;;;;;;;;;;11.30;100.00;99616.38;1820075;77;20098;-69
2024/04/01 05:12:05;;;;;;;;;;;;;;;11.46;100.00;99613.61;1824238;77;20189;-71
2024/04/01 05:14:32;;;;;;;;;;;;;;;11.63;100.00;99612.83;1840019;77;20092;-70
2024/04/01 05:17:00;;;;;;;;;;;;;;;11.85;100.00;99614.88;1833404;77;20101;-70
2024/04/01 05:19:32;;;;;;;;;;;;;;;12.10;100.00;99609.27;1820119;77;20096;-74
2024/04/01 05:22:16;;;;;;;;;;;;;;;12.39;100.00;99600.73;1812724;77;20167;-77
2024/04/01 05:24:44;;;;;;;;;;;;;;;12.67;100.00;99592.12;1820888;77;20203;-72
2024/04/01 05:27:13;;;;;;;;;;;;;;;12.94;100.00;99589.75;1828940;77;20171;-71
2024/04/01 05:29:40;;;;;;;;;;;;;;;13.14;100.00;99584.38;1810665;78;20130;-76
2024/04/01 05:32:07;;;;;;;;;;;;;;;13.34;100.00;99584.58;1818157;79;20152;-72
2024/04/01 05:34:37;;;;;;;;;;;;;;;13.56;100.00;99586.44;1792448;78;20175;-72
2024/04/01 05:37:05;;;;;;;;;;;;;;;13.73;100.00;99571.22;1798045;77;20101;-70
2024/04/01 05:39:35;;;;;;;;;;;;;;;13.89;100.00;99565.18;1831875;77;20877;-73
2024/04/01 05:42:05;;;;;;;;;;;;;;;14.05;100.00;99575.27;1834395;77;20176;-69
2024/04/01 05:44:32;;;;;;;;;;;;;;;14.19;100.00;99573.73;1817311;77;20104;-72
2024/04/01 05:46:58;;;;;;;;;;;;;;;14.30;100.00;99565.40;1820181;77;20099;-72
2024/04/01 05:49:24;;;;;;;;;;;;;;;14.41;100.00;99573.72;1796515;77;20145;-71
2024/04/01 05:51:51;;;;;;;;;;;;;;;14.50;100.00;99578.72;1799509;77;20111;-72
2024/04/01 05:54:17;;;;;;;;;;;;;;;14.58;100.00;99571.08;1817980;77;20129;-69
2024/04/01 05:56:44;;;;;;;;;;;;;;;14.65;100.00;99561.30;1811861;77;20443;-73
2024/04/01 05:59:12;;;;;;;;;;;;;;;14.64;100.00;99554.88;1796985;77;20091;-69
2024/04/01 06:01:40;;;;;;;;;;;;;;;14.62;100.00;99556.78;1777872;79;20130;-72
2024/04/01 06:04:11;;;;;;;;;;;;;;;14.63;100.00;99560.59;1813777;78;20464;-72
2024/04/01 06:06:41;;;;;;;;;;;;;;;14.66;100.00;99588.34;1819858;77;20172;-74
2024/04/01 06:09:11;;;;;;;;;;;;;;;14.72;100.00;99593.57;1812177;78;20147;-73
2024/04/01 06:11:38;;;;;;;;;;;;;;;14.76;100.00;99581.89;1817234;77;20376;-71
2024/04/01 06:14:04;;;;;;;;;;;;;;;14.85;100.00;99581.13;1802030;78;20134;-69
2024/04/01 06:16:31;;;;;;;;;;;;;;;14.94;99.40;99588.25;1814251;77;20588;-69
2024/04/01 06:18:57;;;;;;;;;;;;;;;14.97;99.06;99590.63;1817895;77;20124;-70
2024/04/01 06:21:25;;;;;;;;;;;;;;;15.00;98.38;99587.27;1812259;77;20129;-73
2024/04/01 06:23:52;;;;;;;;;;;;;;;15.05;97.88;99584.76;1808857;77;20376;-69
2024/04/01 06:26:18;;;;;;;;;;;;;;;15.09;98.23;99594.05;1805020;77;20158;-70
2024/04/01 06:28:48;;;;;;;;;;;;;;;15.19;97.31;99595.80;1797511;79;20422;-68
2024/04/01 06:31:16;;;;;;;;;;;;;;;15.29;96.78;99599.30;1801143;77;20502;-68
2024/04/01 06:33:42;;;;;;;;;;;;;;;15.41;97.01;99594.00;1795005;78;20158;-68
2024/04/01 06:36:11;;;;;;;;;;;;;;;15.56;96.26;99594.05;1799679;77;20124;-71
2024/04/01 06:38:41;;;;;;;;;;;;;;;15.66;94.10;99596.26;1801486;78;20104;-70
2024/04/01 06:41:13;;;;;;;;;;;;;;;15.67;93.53;99597.92;1809332;78;20134;-71
2024/04/01 06:43:40;;;;;;;;;;;;;;;15.67;93.79;99594.82;1816360;77;20396;-70
2024/04/01 06:46:06;;;;;;;;;;;;;;;15.73;94.07;99596.10;1809981;77;20153;-71
2024/04/01 06:48:38;;;;;;;;;;;;;;;15.81;93.38;99600.71;1805144;78;20087;-71
2024/04/01 06:51:09;;;;;;;;;;;;;;;15.87;93.15;99598.40;1817318;77;20269;-71
2024/04/01 06:53:36;;;;;;;;;;;;;;;15.95;92.86;99593.81;1818889;77;20112;-70
2024/04/01 06:56:03;;;;;;;;;;;;;;;16.07;92.51;99602.41;1811957;77;20381;-70
2024/04/01 06:58:31;;;;;;;;;;;;;;;16.18;92.51;99597.91;1786781;78;20104;-70
2024/04/01 07:01:00;;;;;;;;;;;;;;;16.32;91.94;99602.81;1813722;77;20397;-71
2024/04/01 07:03:26;;;;;;;;;;;;;;;16.46;91.05;99598.97;1819698;77;20377;-70
2024/04/01 07:05:52;;;;;;;;;;;;;;;16.54;90.10;99599.61;1817755;77;20398;-70
2024/04/01 07:08:21;;;;;;;;;;;;;;;16.65;90.23;99603.00;1805756;78;20402;-71
2024/04/01 07:10:49;;;;;;;;;;;;;;;16.79;88.43;99594.38;1806133;77;20543;-71
2024/04/01 07:13:16;;;;;;;;;;;;;;;16.82;87.16;99596.71;1817945;77;20429;-70
2024/04/01 07:15:42;;;;;;;;;;;;;;;16.78;87.57;99594.04;1818054;77;20501;-69
2024/04/01 07:18:09;;;;;;;;;;;;;;;16.79;87.69;99595.22;1798223;77;20147;-71
2024/04/01 07:20:36;;;;;;;;;;;;;;;16.78;86.72;99589.61;1815690;77;20124;-69
2024/04/01 07:23:02;;;;;;;;;;;;;;;16.66;87.04;99594.14;1813178;77;20192;-68
2024/04/01 07:25:29;;;;;;;;;;;;;;;16.57;87.71;99584.41;1803546;78;20126;-68
2024/04/01 07:27:57;;;;;;;;;;;;;;;16.52;88.22;99587.09;1803193;77;20127;-68
2024/04/01 07:30:24;;;;;;;;;;;;;;;16.52;88.95;99584.45;1822165;77;20429;-69
2024/04/01 07:32:50;;;;;;;;;;;;;;;16.63;88.88;99575.15;1813770;77;20373;-69
2024/04/01 07:35:19;;;;;;;;;;;;;;;16.81;88.15;99575.33;1806845;78;20106;-70
2024/04/01 07:37:46;;;;;;;;;;;;;;;17.05;87.20;99573.14;1812706;78;20108;-71
2024/04/01 07:40:13;;;;;;;;;;;;;;;17.30;87.11;99568.62;1814835;77;20198;-69
2024/04/01 07:42:42;;;;;;;;;;;;;;;17.62;86.11;99569.59;1819460;78;20141;-70
2024/04/01 07:45:09;;;;;;;;;;;;;;;17.84;84.33;99570.27;1812078;77;20129;-71
2024/04/01 07:47:35;;;;;;;;;;;;;;;17.83;83.52;99567.30;1784158;78;20497;-69
2024/04/01 07:50:02;;;;;;;;;;;;;;;17.73;83.97;99571.27;1815484;79;20125;-69
2024/04/01 07:52:29;;;;;;;;;;;;;;;17.67;83.73;99570.52;1811467;77;20106;-70
2024/04/01 07:54:55;;;;;;;;;;;;;;;17.60;83.83;99578.12;1802969;78;20177;-68
2024/04/01 07:57:23;;;;;;;;;;;;;;;17.63;84.90;99580.47;1812242;77;20197;-69
2024/04/01 07:59:49;;;;;;;;;;;;;;;17.81;85.22;99588.51;1787430;78;20106;-70
2024/04/01 08:02:16;;;;;;;;;;;;;;;18.09;84.73;99588.55;1806026;78;20162;-68
2024/04/01 08:04:42;;;;;;;;;;;;;;;18.40;82.92;99585.96;1808137;79;20094;-70
2024/04/01 08:07:08;;;;;;;;;;;;;;;18.58;82.04;99588.66;1821746;77;20108;-68
2024/04/01 08:09:36;;;;;;;;;;;;;;;18.67;80.66;99597.03;1811985;77;20099;-67
2024/04/01 08:12:03;;;;;;;;;;;;;;;18.62;80.14;99589.56;1810720;78;20227;-68
2024/04/01 08:14:30;;;;;;;;;;;;;;;18.47;80.07;99584.89;1817919;77;20102;-68
2024/04/01 08:16:57;;;;;;;;;;;;;;;18.41;81.69;99587.63;1817332;77;20132;-68
2024/04/01 08:19:25;;;;;;;;;;;;;;;18.52;81.33;99587.43;1814358;77;20179;-69
2024/04/01 08:21:52;;;;;;;;;;;;;;;18.61;80.74;99588.39;1810398;77;20108;-68
2024/04/01 08:24:19;;;;;;;;;;;;;;;18.63;80.66;99599.13;1814750;77;20123;-68
2024/04/01 08:26:46;;;;;;;;;;;;;;;18.69;81.12;99605.63;1808412;78;20130;-68
2024/04/01 08:29:16;;;;;;;;;;;;;;;18.77;80.19;99610.16;1823345;77;20172;-68
2024/04/01 08:31:43;;;;;;;;;;;;;;;18.87;80.07;99597.23;1795777;77;20119;-70
2024/04/01 08:34:09;;;;;;;;;;;;;;;18.99;79.41;99607.91;1811495;78;20094;-68
2024/04/01 08:36:36;;;;;;;;;;;;;;;19.15;78.02;99611.20;1820563;77;20231;-68
2024/04/01 08:39:03;;;;;;;;;;;;;;;19.26;77.74;99610.12;1815426;77;20176;-68
2024/04/01 08:41:35;;;;;;;;;;;;;;;19.37;77.57;99613.02;1761428;79;20147;-69
2024/04/01 08:44:15;;;;;;;;;;;;;;;19.50;78.25;99615.62;1780459;79;20170;-74
2024/04/01 08:46:51;;;;;;;;;;;;;;;19.72;77.62;99590.53;1799078;77;20112;-69
2024/04/01 08:49:22;;;;;;;;;;;;;;;19.84;75.43;99598.55;1819546;77;20104;-70
2024/04/01 08:51:49;;;;;;;;;;;;;;;19.87;75.06;99593.45;1819621;77;20109;-67
2024/04/01 08:54:16;;;;;;;;;;;;;;;19.94;75.52;99590.52;1814992;77;20102;-68
2024/04/01 08:56:43;;;;;;;;;;;;;;;19.95;74.20;99581.11;1803514;78;20157;-73
2024/04/01 08:59:09;;;;;;;;;;;;;;;19.92;74.34;99572.67;1809250;77;20295;-68
2024/04/01 09:01:49;;;;;;;;;;;;;;;19.87;74.04;99573.13;1783567;79;20103;-73
2024/04/01 09:04:16;;;;;;;;;;;;;;;19.84;74.43;99576.09;1798397;79;20408;-68
2024/04/01 09:06:42;;;;;;;;;;;;;;;19.82;74.01;99575.91;1799477;79;20161;-69
2024/04/01 09:09:09;;;;;;;;;;;;;;;19.80;74.33;99581.34;1812264;79;20381;-68
2024/04/01 09:11:35;;;;;;;;;;;;;;;19.79;73.97;99577.05;1793439;79;20102;-69
2024/04/01 09:14:02;;;;;;;;;;;;;;;19.71;74.65;99573.52;1812629;77;20122;-68
2024/04/01 09:16:29;;;;;;;;;;;;;;;19.63;74.95;99568.52;1811919;77;20215;-70
2024/04/01 09:19:07;;;;;;;;;;;;;;;19.60;75.10;99567.50;1810497;78;20214;-69
2024/04/01 09:21:31;;;;;;;;;;;;;;;19.55;75.00;99557.09;1808379;77;20139;-69
2024/04/01 09:23:57;;;;;;;;;;;;;;;19.53;76.24;99561.70;1802134;78;20151;-70
2024/04/01 09:26:32;;;;;;;;;;;;;;;19.56;76.58;99561.39;1756331;78;20116;-71
2024/04/01 09:29:02;;;;;;;;;;;;;;;19.59;76.08;99561.08;1802620;78;20398;-71
2024/04/01 09:31:31;;;;;;;;;;;;;;;19.57;76.69;99564.38;1803595;77;20400;-74
2024/04/01 09:33:57;;;;;;;;;;;;;;;19.59;76.76;99552.64;1807471;78;20123;-68
2024/04/01 09:36:32;;;;;;;;;;;;;;;19.60;76.93;99555.62;1813214;78;20138;-71
2024/04/01 09:38:59;;;;;;;;;;;;;;;19.62;77.03;99559.42;1802371;78;20113;-70
2024/04/01 09:41:26;;;;;;;;;;;;;;;19.59;77.52;99560.56;1817165;79;20395;-69
2024/04/01 09:43:58;;;;;;;;;;;;;;;19.59;77.02;99553.96;1815538;79;20102;-73
2024/04/01 09:46:25;;;;;;;;;;;;;;;19.61;76.42;99553.31;1798843;77;20111;-68
2024/04/01 09:48:53;;;;;;;;;;;;;;;19.64;76.87;99559.61;1812761;77;20165;-71
2024/04/01 09:51:20;;;;;;;;;;;;;;;19.70;76.98;99556.84;1773890;80;20154;-68
2024/04/01 09:53:48;;;;;;;;;;;;;;;19.73;76.59;99551.25;1794232;77;20098;-68
2024/04/01 09:56:22;;;;;;;;;;;;;;;19.82;76.63;99548.16;1809789;77;20124;-70
2024/04/01 09:59:29;;;;;;;;;;;;;;;19.86;75.86;99551.66;1808745;77;20855;-69
2024/04/01 10:02:18;;;;;;;;;;;;;;;19.87;76.24;99558.60;1807156;78;20166;-71
2024/04/01 10:04:59;;;;;;;;;;;;;;;19.91;77.05;99557.30;1773328;79;20114;-68
2024/04/01 10:07:49;;;;;;;;;;;;;;;19.98;77.04;99542.97;1808512;78;20101;-71
2024/04/01 10:10:54;;;;;;;;;;;;;;;20.06;76.76;99553.55;1813843;78;20098;-68
2024/04/01 10:13:47;;;;;;;;;;;;;;;20.12;75.23;99552.92;1804957;78;20095;-69
2024/04/01 10:16:29;;;;;;;;;;;;;;;20.11;75.72;99552.59;1804513;78;20156;-70
2024/04/01 10:19:32;;;;;;;;;;;;;;;20.15;75.10;99554.42;1809315;79;20134;-68
2024/04/01 10:22:11;;;;;;;;;;;;;;;20.14;75.10;99546.98;1801616;79;20095;-68
2024/04/01 10:24:52;;;;;;;;;;;;;;;20.13;75.86;99544.01;1793201;79;20090;-68
2024/04/01 10:30:52;;;;;;;;;;;;;;;20.13;76.08;99540.05;1805172;77;20230;-69
2024/04/01 10:33:43;;;;;;;;;;;;;;;20.18;76.35;99534.28;1807687;79;20124;-68
2024/04/01 10:36:31;;;;;;;;;;;;;;;20.23;76.30;99529.34;1819209;79;20123;-68
2024/04/01 10:39:20;;;;;;;;;;;;;;;20.28;76.53;99525.23;1816785;79;20104;-67
2024/04/01 10:42:18;;;;;;;;;;;;;;;20.29;76.80;99524.75;1791984;79;20100;-67
2024/04/01 10:45:09;;;;;;;;;;;;;;;20.26;76.07;99519.28;1817023;79;20108;-67
2024/04/01 10:47:59;;;;;;;;;;;;;;;20.21;76.24;99508.85;1744804;78;20135;-69
2024/04/01 10:50:39;;;;;;;;;;;;;;;20.19;76.53;99505.54;1807346;78;20394;-73
2024/04/01 10:53:29;;;;;;;;;;;;;;;20.24;76.07;99517.78;1803840;77;20462;-68
2024/04/01 10:56:16;;;;;;;;;;;;;;;20.27;76.40;99517.47;1816089;77;20391;-68
2024/04/01 10:59:06;;;;;;;;;;;;;;;20.31;76.27;99513.52;1801936;77;20080;-68
2024/04/01 11:01:59;;;;;;;;;;;;;;;20.35;75.75;99512.70;1803475;77;20165;-69
2024/04/01 11:05:06;;;;;;;;;;;;;;;20.36;74.64;99514.36;1827132;77;20158;-72
2024/04/01 11:07:58;;;;;;;;;;;;;;;20.31;74.09;99511.70;1819568;77;20140;-70
2024/04/01 11:10:49;;;;;;;;;;;;;;;20.26;74.64;99508.71;1812882;79;20195;-74
2024/04/01 11:13:31;;;;;;;;;;;;;;;20.25;75.68;99506.22;1794014;79;20120;-70
2024/04/01 11:16:05;;;;;;;;;;;;;;;20.24;76.09;99505.39;1797406;77;20092;-71
2024/04/01 11:18:51;;;;;;;;;;;;;;;20.26;75.33;99498.13;1810936;78;20243;-67
2024/04/01 11:21:25;;;;;;;;;;;;;;;20.34;75.36;99504.44;1820915;77;20145;-67
2024/04/01 11:24:16;;;;;;;;;;;;;;;20.41;74.89;99502.31;1803081;78;20491;-69
2024/04/01 11:27:11;;;;;;;;;;;;;;;20.52;74.03;99498.54;1821074;77;20098;-73
2024/04/01 11:29:59;;;;;;;;;;;;;;;20.66;73.39;99503.20;1806584;77;20116;-70
2024/04/01 11:32:30;;;;;;;;;;;;;;;20.73;72.27;99492.80;1815719;78;20130;-75
2024/04/01 11:35:27;;;;;;;;;;;;;;;20.78;72.87;99487.84;1823407;77;20107;-71
2024/04/01 11:37:57;;;;;;;;;;;;;;;20.84;72.88;99484.51;1809948;77;20371;-70
2024/04/01 11:40:31;;;;;;;;;;;;;;;20.92;72.54;99475.25;1811708;78;20102;-75
2024/04/01 11:43:13;;;;;;;;;;;;;;;21.00;72.53;99459.87;1786934;77;20099;-70
2024/04/01 11:45:44;;;;;;;;;;;;;;;21.07;72.21;99460.36;1816679;77;20386;-68
2024/04/01 11:48:15;;;;;;;;;;;;;;;21.12;72.08;99455.40;1804085;78;20124;-70
2024/04/01 11:50:51;;;;;;;;;;;;;;;21.18;69.92;99450.76;1815039;77;20163;-68
2024/04/01 11:53:17;;;;;;;;;;;;;;;21.21;70.38;99442.48;1812877;78;20134;-70
2024/04/01 11:55:58;;;;;;;;;;;;;;;21.27;71.21;99439.16;1752121;80;20149;-69
2024/04/01 11:58:26;;;;;;;;;;;;;;;21.35;72.48;99441.47;1747393;81;20124;-69
2024/04/01 12:01:01;;;;;;;;;;;;;;;21.38;72.54;99434.52;1751308;80;20152;-73
2024/04/01 12:03:39;;;;;;;;;;;;;;;21.43;73.02;99434.83;1762960;79;20122;-69
2024/04/01 12:06:07;;;;;;;;;;;;;;;21.50;72.90;99430.02;1753349;80;20169;-71
2024/04/01 12:08:34;;;;;;;;;;;;;;;21.60;71.83;99431.11;1737153;81;20613;-69
2024/04/01 12:13:56;;;;;;;;;;;;;;;21.78;71.50;99434.36;1741029;81;20227;-71
2024/04/01 12:16:28;;;;;;;;;;;;;;;21.86;69.05;99430.36;1728669;80;20143;-71
2024/04/01 12:21:50;;;;;;;;;;;;;;;21.96;68.60;99430.15;1753366;81;20097;-73
2024/04/01 12:24:17;;;;;;;;;;;;;;;22.01;69.06;99426.48;1721526;82;20467;-72
2024/04/01 12:26:43;;;;;;;;;;;;;;;22.08;70.23;99422.64;1737225;82;20115;-72
2024/04/01 12:29:13;;;;;;;;;;;;;;;22.15;70.05;99425.75;1741761;80;20127;-71
2024/04/01 12:31:49;;;;;;;;;;;;;;;22.21;69.80;99426.38;1668630;82;20121;-71
2024/04/01 12:34:15;;;;;;;;;;;;;;;22.29;68.61;99432.14;1729663;81;20124;-70
2024/04/01 12:36:42;;;;;;;;;;;;;;;22.31;68.41;99428.81;1751535;81;20152;-70
2024/04/01 12:39:11;;;;;;;;;;;;;;;22.32;67.80;99425.66;1738219;81;20210;-69
2024/04/01 12:41:38;;;;;;;;;;;;;;;22.32;67.48;99426.98;1736426;81;20135;-70
2024/04/01 12:44:06;;;;;;;;;;;;;;;22.32;66.68;99431.78;1739987;81;20155;-73
2024/04/01 12:46:43;;;;;;;;;;;;;;;22.33;66.58;99438.75;1724001;81;20117;-70
2024/04/01 12:49:13;;;;;;;;;;;;;;;22.31;66.24;99428.81;1739278;80;20108;-72
2024/04/01 12:51:47;;;;;;;;;;;;;;;22.29;66.54;99432.14;1736947;80;20158;-70
2024/04/01 12:54:35;;;;;;;;;;;;;;;22.27;66.87;99434.97;1744244;81;20117;-70
2024/04/01 12:57:20;;;;;;;;;;;;;;;22.25;67.27;99430.83;1757831;80;20174;-73
2024/04/01 13:00:04;;;;;;;;;;;;;;;22.21;67.59;99426.88;1750077;80;20101;-71
2024/04/01 13:02:47;;;;;;;;;;;;;;;22.19;68.07;99426.23;1751308;81;20355;-72
2024/04/01 13:05:24;;;;;;;;;;;;;;;22.21;67.94;99428.20;1738514;80;20419;-72
2024/04/01 13:08:12;;;;;;;;;;;;;;;22.21;67.69;99430.86;1724660;82;20108;-71
2024/04/01 13:11:07;;;;;;;;;;;;;;;22.22;68.09;99431.19;1747276;81;20120;-73
2024/04/01 13:14:05;;;;;;;;;;;;;;;22.23;67.59;99416.92;1759682;80;20371;-69
2024/04/01 13:16:48;;;;;;;;;;;;;;;22.19;67.59;99414.30;1735696;81;20152;-71
2024/04/01 13:19:36;;;;;;;;;;;;;;;22.17;67.58;99410.98;1747636;81;20132;-74
2024/04/01 13:22:24;;;;;;;;;;;;;;;22.13;66.95;99405.20;1742910;81;20129;-74
2024/04/01 13:25:01;;;;;;;;;;;;;;;22.11;67.62;99398.42;1800796;78;20112;-71
2024/04/01 13:27:50;;;;;;;;;;;;;;;22.15;66.92;99391.77;1822580;77;20105;-68
2024/04/01 13:30:32;;;;;;;;;;;;;;;22.19;66.49;99393.08;1815851;77;20111;-70
2024/04/01 13:33:06;;;;;;;;;;;;;;;22.20;65.97;99395.55;1821272;77;20159;-71
2024/04/01 13:35:55;;;;;;;;;;;;;;;22.23;65.57;99387.25;1823578;77;20432;-70
2024/04/01 13:38:43;;;;;;;;;;;;;;;22.28;65.47;99386.72;1807093;77;20108;-67
2024/04/01 13:41:19;;;;;;;;;;;;;;;22.33;65.57;99383.54;1822157;77;20147;-70
2024/04/01 13:44:19;;;;;;;;;;;;;;;22.34;65.04;99378.06;1819689;77;20430;-74
2024/04/01 13:46:49;;;;;;;;;;;;;;;22.33;65.04;99372.43;1795420;78;20130;-71
2024/04/01 13:49:41;;;;;;;;;;;;;;;22.33;65.00;99368.95;1820792;77;20161;-69
2024/04/01 13:52:28;;;;;;;;;;;;;;;22.36;64.87;99373.41;1817243;77;20086;-72
2024/04/01 13:55:00;;;;;;;;;;;;;;;22.39;64.99;99357.63;1814745;77;20193;-68
2024/04/01 13:57:45;;;;;;;;;;;;;;;22.43;65.69;99359.72;1795851;78;20374;-72
2024/04/01 14:00:19;;;;;;;;;;;;;;;22.49;66.27;99357.69;1802803;77;20100;-73
2024/04/01 14:03:05;;;;;;;;;;;;;;;22.55;65.94;99356.98;1814614;77;20187;-70
2024/04/01 14:05:53;;;;;;;;;;;;;;;22.62;66.02;99359.23;1822762;77;20104;-70
2024/04/01 14:08:39;;;;;;;;;;;;;;;22.68;67.30;99354.22;1842361;77;20528;-71
